sensor_id;sensor_type;location;lat;lon;timestamp;pressure;altitude;pressure_sealevel;temperature
13570;BMP180;6856;51.460;7.158;2022-09-29T02:32:40;98847.00;;;12.00
13570;BMP180;6856;51.460;7.158;2022-09-29T02:35:14;98832.00;;;12.00
13570;BMP180;6856;51.460;7.158;2022-09-29T02:38:02;98840.00;;;12.00
13570;BMP180;6856;51.460;7.158;2022-09-29T02:40:47;98846.00;;;12.10
13570;BMP180;6856;51.460;7.158;2022-09-29T02:43:49;98844.00;;;12.10
13570;BMP180;6856;51.460;7.158;2022-09-29T02:46:42;98832.00;;;12.20
13570;BMP180;6856;51.460;7.158;2022-09-29T02:49:45;98835.00;;;12.20
13570;BMP180;6856;51.460;7.158;2022-09-29T02:52:36;98840.00;;;12.20
13570;BMP180;6856;51.460;7.158;2022-09-29T02:55:19;98838.00;;;12.20
13570;BMP180;6856;51.460;7.158;2022-09-29T02:58:02;98835.00;;;12.20
13570;BMP180;6856;51.460;7.158;2022-09-29T03:00:38;98837.00;;;12.20
13570;BMP180;6856;51.460;7.158;2022-09-29T03:03:12;98824.00;;;12.20
13570;BMP180;6856;51.460;7.158;2022-09-29T03:05:49;98839.00;;;12.20
13570;BMP180;6856;51.460;7.158;2022-09-29T03:08:23;98848.00;;;12.30
13570;BMP180;6856;51.460;7.158;2022-09-29T03:10:56;98841.00;;;12.20
13570;BMP180;6856;51.460;7.158;2022-09-29T03:13:29;98842.00;;;12.20
13570;BMP180;6856;51.460;7.158;2022-09-29T03:16:03;98837.00;;;12.20
13570;BMP180;6856;51.460;7.158;2022-09-29T03:18:37;98819.00;;;12.20
13570;BMP180;6856;51.460;7.158;2022-09-29T03:21:12;98829.00;;;12.20
13570;BMP180;6856;51.460;7.158;2022-09-29T03:23:45;98836.00;;;12.20
13570;BMP180;6856;51.460;7.158;2022-09-29T03:26:19;98837.00;;;12.20
13570;BMP180;6856;51.460;7.158;2022-09-29T03:28:52;98839.00;;;12.20
13570;BMP180;6856;51.460;7.158;2022-09-29T03:31:26;98823.00;;;12.20
13570;BMP180;6856;51.460;7.158;2022-09-29T03:34:00;98814.00;;;12.20
13570;BMP180;6856;51.460;7.158;2022-09-29T03:36:34;98821.00;;;12.20
13570;BMP180;6856;51.460;7.158;2022-09-29T03:39:08;98837.00;;;12.20
13570;BMP180;6856;51.460;7.158;2022-09-29T03:41:41;98835.00;;;12.20
13570;BMP180;6856;51.460;7.158;2022-09-29T03:44:15;98833.00;;;12.20
13570;BMP180;6856;51.460;7.158;2022-09-29T03:46:48;98835.00;;;12.20
13570;BMP180;6856;51.460;7.158;2022-09-29T03:49:21;98841.00;;;12.20
13570;BMP180;6856;51.460;7.158;2022-09-29T03:51:56;98837.00;;;12.20
13570;BMP180;6856;51.460;7.158;2022-09-29T03:54:30;98868.00;;;12.20
13570;BMP180;6856;51.460;7.158;2022-09-29T03:57:03;98811.00;;;12.20
13570;BMP180;6856;51.460;7.158;2022-09-29T03:59:37;98821.00;;;12.10
13570;BMP180;6856;51.460;7.158;2022-09-29T04:02:16;98832.00;;;12.10
13570;BMP180;6856;51.460;7.158;2022-09-29T04:04:50;98834.00;;;12.10
13570;BMP180;6856;51.460;7.158;2022-09-29T04:07:26;98849.00;;;12.10
13570;BMP180;6856;51.460;7.158;2022-09-29T04:10:00;98842.00;;;12.10
13570;BMP180;6856;51.460;7.158;2022-09-29T04:12:33;98847.00;;;12.10
13570;BMP180;6856;51.460;7.158;2022-09-29T04:15:08;98851.00;;;12.10
13570;BMP180;6856;51.460;7.158;2022-09-29T04:17:41;98855.00;;;12.10
13570;BMP180;6856;51.460;7.158;2022-09-29T04:20:16;98861.00;;;12.10
13570;BMP180;6856;51.460;7.158;2022-09-29T04:22:51;98836.00;;;12.10
13570;BMP180;6856;51.460;7.158;2022-09-29T04:25:25;98851.00;;;12.10
13570;BMP180;6856;51.460;7.158;2022-09-29T04:28:00;98858.00;;;12.10
13570;BMP180;6856;51.460;7.158;2022-09-29T04:30:33;98861.00;;;12.10
13570;BMP180;6856;51.460;7.158;2022-09-29T04:33:07;98845.00;;;12.10
13570;BMP180;6856;51.460;7.158;2022-09-29T04:35:41;98858.00;;;12.00
13570;BMP180;6856;51.460;7.158;2022-09-29T04:38:16;98867.00;;;12.00
13570;BMP180;6856;51.460;7.158;2022-09-29T04:40:50;98858.00;;;12.00
13570;BMP180;6856;51.460;7.158;2022-09-29T04:43:24;98867.00;;;12.00
13570;BMP180;6856;51.460;7.158;2022-09-29T04:46:05;98866.00;;;11.90
13570;BMP180;6856;51.460;7.158;2022-09-29T04:48:39;98872.00;;;11.90
13570;BMP180;6856;51.460;7.158;2022-09-29T04:51:13;98876.00;;;11.90
13570;BMP180;6856;51.460;7.158;2022-09-29T04:53:48;98861.00;;;11.90
13570;BMP180;6856;51.460;7.158;2022-09-29T04:56:25;98875.00;;;11.80
13570;BMP180;6856;51.460;7.158;2022-09-29T04:59:02;98871.00;;;11.80
13570;BMP180;6856;51.460;7.158;2022-09-29T05:01:37;98859.00;;;11.80
13570;BMP180;6856;51.460;7.158;2022-09-29T05:04:10;98873.00;;;11.80
13570;BMP180;6856;51.460;7.158;2022-09-29T05:06:44;98870.00;;;11.70
13570;BMP180;6856;51.460;7.158;2022-09-29T05:09:20;98854.00;;;11.70
13570;BMP180;6856;51.460;7.158;2022-09-29T05:11:56;98852.00;;;11.70
13570;BMP180;6856;51.460;7.158;2022-09-29T05:14:32;98879.00;;;11.70
13570;BMP180;6856;51.460;7.158;2022-09-29T05:17:06;98877.00;;;11.70
13570;BMP180;6856;51.460;7.158;2022-09-29T05:19:39;98886.00;;;11.70
13570;BMP180;6856;51.460;7.158;2022-09-29T05:22:12;98880.00;;;11.70
13570;BMP180;6856;51.460;7.158;2022-09-29T05:24:47;98885.00;;;11.60
13570;BMP180;6856;51.460;7.158;2022-09-29T05:27:21;98877.00;;;11.60
13570;BMP180;6856;51.460;7.158;2022-09-29T05:29:54;98894.00;;;11.60
13570;BMP180;6856;51.460;7.158;2022-09-29T05:32:28;98869.00;;;11.60
13570;BMP180;6856;51.460;7.158;2022-09-29T05:35:01;98889.00;;;11.60
13570;BMP180;6856;51.460;7.158;2022-09-29T05:37:35;98892.00;;;11.60
13570;BMP180;6856;51.460;7.158;2022-09-29T05:40:10;98889.00;;;11.60
13570;BMP180;6856;51.460;7.158;2022-09-29T05:42:44;98885.00;;;11.60
13570;BMP180;6856;51.460;7.158;2022-09-29T05:45:18;98902.00;;;11.60
13570;BMP180;6856;51.460;7.158;2022-09-29T05:47:55;98903.00;;;11.60
13570;BMP180;6856;51.460;7.158;2022-09-29T05:50:28;98896.00;;;11.60
13570;BMP180;6856;51.460;7.158;2022-09-29T05:53:03;98903.00;;;11.50
13570;BMP180;6856;51.460;7.158;2022-09-29T05:55:38;98906.00;;;11.50
13570;BMP180;6856;51.460;7.158;2022-09-29T05:58:13;98904.00;;;11.50
13570;BMP180;6856;51.460;7.158;2022-09-29T06:00:46;98899.00;;;11.50
13570;BMP180;6856;51.460;7.158;2022-09-29T06:03:20;98904.00;;;11.40
13570;BMP180;6856;51.460;7.158;2022-09-29T06:05:53;98910.00;;;11.50
13570;BMP180;6856;51.460;7.158;2022-09-29T06:08:26;98920.00;;;11.50
13570;BMP180;6856;51.460;7.158;2022-09-29T06:11:06;98920.00;;;11.50
13570;BMP180;6856;51.460;7.158;2022-09-29T06:13:42;98916.00;;;11.50
13570;BMP180;6856;51.460;7.158;2022-09-29T06:16:17;98921.00;;;11.40
13570;BMP180;6856;51.460;7.158;2022-09-29T06:18:52;98912.00;;;11.50
13570;BMP180;6856;51.460;7.158;2022-09-29T06:21:28;98925.00;;;11.50
13570;BMP180;6856;51.460;7.158;2022-09-29T06:24:02;98908.00;;;11.60
13570;BMP180;6856;51.460;7.158;2022-09-29T06:26:39;98918.00;;;11.60
13570;BMP180;6856;51.460;7.158;2022-09-29T06:29:14;98930.00;;;11.60
13570;BMP180;6856;51.460;7.158;2022-09-29T06:31:47;98928.00;;;11.60
13570;BMP180;6856;51.460;7.158;2022-09-29T06:34:21;98939.00;;;11.60
13570;BMP180;6856;51.460;7.158;2022-09-29T06:36:55;98935.00;;;11.70
13570;BMP180;6856;51.460;7.158;2022-09-29T06:39:46;98935.00;;;11.70
13570;BMP180;6856;51.460;7.158;2022-09-29T06:42:21;98934.00;;;11.70
13570;BMP180;6856;51.460;7.158;2022-09-29T06:44:54;98937.00;;;11.80
13570;BMP180;6856;51.460;7.158;2022-09-29T06:47:28;98947.00;;;11.80
13570;BMP180;6856;51.460;7.158;2022-09-29T06:50:01;98950.00;;;11.80
13570;BMP180;6856;51.460;7.158;2022-09-29T06:52:42;98938.00;;;11.90
13570;BMP180;6856;51.460;7.158;2022-09-29T06:55:29;98956.00;;;11.90
13570;BMP180;6856;51.460;7.158;2022-09-29T06:58:04;98957.00;;;12.00
13570;BMP180;6856;51.460;7.158;2022-09-29T07:00:38;98967.00;;;12.10
13570;BMP180;6856;51.460;7.158;2022-09-29T07:03:11;98963.00;;;12.10
13570;BMP180;6856;51.460;7.158;2022-09-29T07:05:45;98949.00;;;12.20
13570;BMP180;6856;51.460;7.158;2022-09-29T07:08:38;98963.00;;;12.20
13570;BMP180;6856;51.460;7.158;2022-09-29T07:11:12;98962.00;;;12.30
13570;BMP180;6856;51.460;7.158;2022-09-29T07:13:49;98965.00;;;12.30
13570;BMP180;6856;51.460;7.158;2022-09-29T07:16:25;98967.00;;;12.40
13570;BMP180;6856;51.460;7.158;2022-09-29T07:18:59;98978.00;;;12.40
13570;BMP180;6856;51.460;7.158;2022-09-29T07:21:33;98974.00;;;12.50
13570;BMP180;6856;51.460;7.158;2022-09-29T07:24:08;98980.00;;;12.60
13570;BMP180;6856;51.460;7.158;2022-09-29T07:26:41;98969.00;;;12.70
13570;BMP180;6856;51.460;7.158;2022-09-29T07:29:16;98996.00;;;12.80
13570;BMP180;6856;51.460;7.158;2022-09-29T07:31:49;98995.00;;;12.80
13570;BMP180;6856;51.460;7.158;2022-09-29T07:34:24;98988.00;;;12.90
13570;BMP180;6856;51.460;7.158;2022-09-29T07:36:57;99000.00;;;13.00
13570;BMP180;6856;51.460;7.158;2022-09-29T07:39:32;98991.00;;;13.10
13570;BMP180;6856;51.460;7.158;2022-09-29T07:42:05;98997.00;;;13.20
13570;BMP180;6856;51.460;7.158;2022-09-29T07:44:41;98972.00;;;13.30
13570;BMP180;6856;51.460;7.158;2022-09-29T07:47:19;98986.00;;;13.40
13570;BMP180;6856;51.460;7.158;2022-09-29T07:49:53;98985.00;;;13.40
13570;BMP180;6856;51.460;7.158;2022-09-29T07:52:26;98980.00;;;13.50
13570;BMP180;6856;51.460;7.158;2022-09-29T07:55:00;99001.00;;;13.60
13570;BMP180;6856;51.460;7.158;2022-09-29T07:57:33;98999.00;;;13.70
13570;BMP180;6856;51.460;7.158;2022-09-29T08:00:10;99004.00;;;13.80
13570;BMP180;6856;51.460;7.158;2022-09-29T08:02:44;99005.00;;;13.90
13570;BMP180;6856;51.460;7.158;2022-09-29T08:05:17;99006.00;;;14.00
13570;BMP180;6856;51.460;7.158;2022-09-29T08:07:51;99009.00;;;14.00
13570;BMP180;6856;51.460;7.158;2022-09-29T08:10:28;99008.00;;;14.10
13570;BMP180;6856;51.460;7.158;2022-09-29T08:13:02;99015.00;;;14.30
13570;BMP180;6856;51.460;7.158;2022-09-29T08:15:37;99022.00;;;14.30
13570;BMP180;6856;51.460;7.158;2022-09-29T08:18:10;99021.00;;;14.40
13570;BMP180;6856;51.460;7.158;2022-09-29T08:20:46;99023.00;;;14.50
13570;BMP180;6856;51.460;7.158;2022-09-29T08:23:20;99009.00;;;14.60
13570;BMP180;6856;51.460;7.158;2022-09-29T08:25:59;99032.00;;;14.70
13570;BMP180;6856;51.460;7.158;2022-09-29T08:28:36;99034.00;;;14.80
13570;BMP180;6856;51.460;7.158;2022-09-29T08:31:14;99038.00;;;14.90
13570;BMP180;6856;51.460;7.158;2022-09-29T08:33:50;99038.00;;;15.00
13570;BMP180;6856;51.460;7.158;2022-09-29T08:36:25;99039.00;;;15.10
13570;BMP180;6856;51.460;7.158;2022-09-29T08:38:58;99039.00;;;15.20
13570;BMP180;6856;51.460;7.158;2022-09-29T08:41:45;99033.00;;;15.30
13570;BMP180;6856;51.460;7.158;2022-09-29T08:44:33;99042.00;;;15.40
13570;BMP180;6856;51.460;7.158;2022-09-29T08:47:22;99054.00;;;15.50
13570;BMP180;6856;51.460;7.158;2022-09-29T08:50:18;99057.00;;;15.50
13570;BMP180;6856;51.460;7.158;2022-09-29T08:52:56;99061.00;;;15.60
13570;BMP180;6856;51.460;7.158;2022-09-29T08:55:40;99066.00;;;15.70
13570;BMP180;6856;51.460;7.158;2022-09-29T08:58:15;99063.00;;;15.80
13570;BMP180;6856;51.460;7.158;2022-09-29T09:01:02;99062.00;;;15.90
13570;BMP180;6856;51.460;7.158;2022-09-29T09:07:08;99064.00;;;16.10
13570;BMP180;6856;51.460;7.158;2022-09-29T09:10:12;99070.00;;;16.20
13570;BMP180;6856;51.460;7.158;2022-09-29T09:13:13;99069.00;;;16.40
13570;BMP180;6856;51.460;7.158;2022-09-29T09:16:06;99073.00;;;16.40
13570;BMP180;6856;51.460;7.158;2022-09-29T09:19:18;99077.00;;;16.50
13570;BMP180;6856;51.460;7.158;2022-09-29T09:22:10;99072.00;;;16.60
13570;BMP180;6856;51.460;7.158;2022-09-29T09:24:55;99070.00;;;16.70
13570;BMP180;6856;51.460;7.158;2022-09-29T09:27:39;99074.00;;;16.80
13570;BMP180;6856;51.460;7.158;2022-09-29T09:30:18;99088.00;;;16.90
13570;BMP180;6856;51.460;7.158;2022-09-29T09:32:59;99070.00;;;16.90
13570;BMP180;6856;51.460;7.158;2022-09-29T09:35:40;99072.00;;;17.00
13570;BMP180;6856;51.460;7.158;2022-09-29T09:38:44;99085.00;;;17.00
13570;BMP180;6856;51.460;7.158;2022-09-29T09:41:23;99076.00;;;17.10
13570;BMP180;6856;51.460;7.158;2022-09-29T09:44:05;99069.00;;;17.20
13570;BMP180;6856;51.460;7.158;2022-09-29T09:46:44;99082.00;;;17.20
13570;BMP180;6856;51.460;7.158;2022-09-29T09:49:26;99076.00;;;17.20
13570;BMP180;6856;51.460;7.158;2022-09-29T09:52:12;99079.00;;;17.20
13570;BMP180;6856;51.460;7.158;2022-09-29T09:54:51;99080.00;;;17.20
13570;BMP180;6856;51.460;7.158;2022-09-29T09:58:06;99082.00;;;17.20
13570;BMP180;6856;51.460;7.158;2022-09-29T10:00:47;99083.00;;;17.30
13570;BMP180;6856;51.460;7.158;2022-09-29T10:03:23;99083.00;;;17.40
13570;BMP180;6856;51.460;7.158;2022-09-29T10:05:57;99089.00;;;17.50
13570;BMP180;6856;51.460;7.158;2022-09-29T10:08:37;99092.00;;;17.60
13570;BMP180;6856;51.460;7.158;2022-09-29T10:11:22;99093.00;;;17.70
13570;BMP180;6856;51.460;7.158;2022-09-29T10:14:03;99065.00;;;17.80
13570;BMP180;6856;51.460;7.158;2022-09-29T10:16:44;99090.00;;;17.80
13570;BMP180;6856;51.460;7.158;2022-09-29T10:19:21;99085.00;;;17.90
13570;BMP180;6856;51.460;7.158;2022-09-29T10:22:12;99090.00;;;18.00
13570;BMP180;6856;51.460;7.158;2022-09-29T10:24:47;99086.00;;;18.00
13570;BMP180;6856;51.460;7.158;2022-09-29T10:27:26;99087.00;;;18.00
13570;BMP180;6856;51.460;7.158;2022-09-29T10:30:01;99100.00;;;18.10
13570;BMP180;6856;51.460;7.158;2022-09-29T10:32:35;99099.00;;;18.10
13570;BMP180;6856;51.460;7.158;2022-09-29T10:35:18;99090.00;;;18.20
13570;BMP180;6856;51.460;7.158;2022-09-29T10:38:00;99091.00;;;18.30
13570;BMP180;6856;51.460;7.158;2022-09-29T10:40:36;99079.00;;;18.40
13570;BMP180;6856;51.460;7.158;2022-09-29T10:43:24;99092.00;;;18.50
13570;BMP180;6856;51.460;7.158;2022-09-29T10:45:57;99086.00;;;18.60
13570;BMP180;6856;51.460;7.158;2022-09-29T10:48:31;99090.00;;;18.70
13570;BMP180;6856;51.460;7.158;2022-09-29T10:51:18;99084.00;;;18.80
13570;BMP180;6856;51.460;7.158;2022-09-29T10:53:54;99106.00;;;18.90
13570;BMP180;6856;51.460;7.158;2022-09-29T10:56:30;99104.00;;;19.00
13570;BMP180;6856;51.460;7.158;2022-09-29T10:59:04;99111.00;;;19.10
13570;BMP180;6856;51.460;7.158;2022-09-29T11:01:45;99111.00;;;19.20
13570;BMP180;6856;51.460;7.158;2022-09-29T11:04:25;99115.00;;;19.20
13570;BMP180;6856;51.460;7.158;2022-09-29T11:07:07;99108.00;;;19.40
13570;BMP180;6856;51.460;7.158;2022-09-29T11:09:45;99114.00;;;19.50
13570;BMP180;6856;51.460;7.158;2022-09-29T11:12:32;99109.00;;;19.60
13570;BMP180;6856;51.460;7.158;2022-09-29T11:15:25;99112.00;;;19.70
13570;BMP180;6856;51.460;7.158;2022-09-29T11:17:59;99118.00;;;19.80
13570;BMP180;6856;51.460;7.158;2022-09-29T11:20:35;99107.00;;;19.90
13570;BMP180;6856;51.460;7.158;2022-09-29T11:23:24;99126.00;;;20.00
13570;BMP180;6856;51.460;7.158;2022-09-29T11:26:23;99126.00;;;20.00
13570;BMP180;6856;51.460;7.158;2022-09-29T11:29:26;99121.00;;;20.00
13570;BMP180;6856;51.460;7.158;2022-09-29T11:32:14;99125.00;;;20.00
13570;BMP180;6856;51.460;7.158;2022-09-29T11:35:22;99126.00;;;20.00
13570;BMP180;6856;51.460;7.158;2022-09-29T11:41:32;99135.00;;;19.90
13570;BMP180;6856;51.460;7.158;2022-09-29T11:44:32;99127.00;;;19.80
13570;BMP180;6856;51.460;7.158;2022-09-29T11:47:37;99133.00;;;19.70
13570;BMP180;6856;51.460;7.158;2022-09-29T11:50:36;99147.00;;;19.70
13570;BMP180;6856;51.460;7.158;2022-09-29T11:53:30;99137.00;;;19.60
13570;BMP180;6856;51.460;7.158;2022-09-29T11:56:22;99147.00;;;19.60
13570;BMP180;6856;51.460;7.158;2022-09-29T11:59:14;99139.00;;;19.50
13570;BMP180;6856;51.460;7.158;2022-09-29T12:02:23;99135.00;;;19.50
13570;BMP180;6856;51.460;7.158;2022-09-29T12:05:12;99147.00;;;19.50
13570;BMP180;6856;51.460;7.158;2022-09-29T12:08:03;99146.00;;;19.50
13570;BMP180;6856;51.460;7.158;2022-09-29T12:10:52;99130.00;;;19.40
13570;BMP180;6856;51.460;7.158;2022-09-29T12:13:41;99133.00;;;19.40
13570;BMP180;6856;51.460;7.158;2022-09-29T12:16:22;99139.00;;;19.40
13570;BMP180;6856;51.460;7.158;2022-09-29T12:19:03;99141.00;;;19.40
13570;BMP180;6856;51.460;7.158;2022-09-29T12:21:42;99134.00;;;19.30
13570;BMP180;6856;51.460;7.158;2022-09-29T12:24:31;99137.00;;;19.40
13570;BMP180;6856;51.460;7.158;2022-09-29T12:27:13;99133.00;;;19.40
13570;BMP180;6856;51.460;7.158;2022-09-29T12:29:53;99138.00;;;19.40
13570;BMP180;6856;51.460;7.158;2022-09-29T12:32:33;99136.00;;;19.50
13570;BMP180;6856;51.460;7.158;2022-09-29T12:35:15;99133.00;;;19.60
13570;BMP180;6856;51.460;7.158;2022-09-29T12:37:56;99142.00;;;19.70
13570;BMP180;6856;51.460;7.158;2022-09-29T12:40:37;99146.00;;;19.80
13570;BMP180;6856;51.460;7.158;2022-09-29T12:43:16;99138.00;;;19.90
13570;BMP180;6856;51.460;7.158;2022-09-29T12:45:59;99135.00;;;20.00
13570;BMP180;6856;51.460;7.158;2022-09-29T12:48:50;99134.00;;;20.10
13570;BMP180;6856;51.460;7.158;2022-09-29T12:51:33;99141.00;;;20.20
13570;BMP180;6856;51.460;7.158;2022-09-29T12:54:17;99141.00;;;20.30
13570;BMP180;6856;51.460;7.158;2022-09-29T12:56:58;99147.00;;;20.30
13570;BMP180;6856;51.460;7.158;2022-09-29T12:59:37;99143.00;;;20.30
13570;BMP180;6856;51.460;7.158;2022-09-29T13:02:45;99128.00;;;20.30
13570;BMP180;6856;51.460;7.158;2022-09-29T13:06:01;99147.00;;;20.30
13570;BMP180;6856;51.460;7.158;2022-09-29T13:09:15;99137.00;;;20.20
13570;BMP180;6856;51.460;7.158;2022-09-29T13:12:28;99133.00;;;20.20
13570;BMP180;6856;51.460;7.158;2022-09-29T13:15:52;99138.00;;;20.20
13570;BMP180;6856;51.460;7.158;2022-09-29T13:19:12;99147.00;;;20.10
13570;BMP180;6856;51.460;7.158;2022-09-29T13:22:29;99141.00;;;20.10
13570;BMP180;6856;51.460;7.158;2022-09-29T13:25:21;99146.00;;;20.10
13570;BMP180;6856;51.460;7.158;2022-09-29T13:27:57;99148.00;;;20.10
13570;BMP180;6856;51.460;7.158;2022-09-29T13:30:35;99150.00;;;20.10
13570;BMP180;6856;51.460;7.158;2022-09-29T13:33:17;99145.00;;;20.10
13570;BMP180;6856;51.460;7.158;2022-09-29T13:35:52;99149.00;;;20.10
13570;BMP180;6856;51.460;7.158;2022-09-29T13:38:30;99152.00;;;20.20
13570;BMP180;6856;51.460;7.158;2022-09-29T13:41:31;99139.00;;;20.20
13570;BMP180;6856;51.460;7.158;2022-09-29T13:44:25;99142.00;;;20.30
13570;BMP180;6856;51.460;7.158;2022-09-29T13:47:31;99155.00;;;20.30
13570;BMP180;6856;51.460;7.158;2022-09-29T13:50:40;99151.00;;;20.40
13570;BMP180;6856;51.460;7.158;2022-09-29T13:53:34;99154.00;;;20.40
13570;BMP180;6856;51.460;7.158;2022-09-29T13:56:13;99149.00;;;20.40
13570;BMP180;6856;51.460;7.158;2022-09-29T13:58:59;99141.00;;;20.50
13570;BMP180;6856;51.460;7.158;2022-09-29T14:01:35;99150.00;;;20.50
13570;BMP180;6856;51.460;7.158;2022-09-29T14:04:47;99155.00;;;20.60
13570;BMP180;6856;51.460;7.158;2022-09-29T14:07:40;99160.00;;;20.60
13570;BMP180;6856;51.460;7.158;2022-09-29T14:10:37;99162.00;;;20.60
13570;BMP180;6856;51.460;7.158;2022-09-29T14:13:23;99173.00;;;20.60
13570;BMP180;6856;51.460;7.158;2022-09-29T14:16:15;99157.00;;;20.60
13570;BMP180;6856;51.460;7.158;2022-09-29T14:18:55;99147.00;;;20.70
13570;BMP180;6856;51.460;7.158;2022-09-29T14:21:51;99166.00;;;20.60
13570;BMP180;6856;51.460;7.158;2022-09-29T14:24:45;99169.00;;;20.60
13570;BMP180;6856;51.460;7.158;2022-09-29T14:27:31;99183.00;;;20.50
13570;BMP180;6856;51.460;7.158;2022-09-29T14:30:17;99157.00;;;20.50
13570;BMP180;6856;51.460;7.158;2022-09-29T14:32:56;99179.00;;;20.50
13570;BMP180;6856;51.460;7.158;2022-09-29T14:35:34;99180.00;;;20.50
13570;BMP180;6856;51.460;7.158;2022-09-29T14:38:18;99160.00;;;20.50
13570;BMP180;6856;51.460;7.158;2022-09-29T14:40:58;99181.00;;;20.40
13570;BMP180;6856;51.460;7.158;2022-09-29T14:43:40;99185.00;;;20.40
13570;BMP180;6856;51.460;7.158;2022-09-29T14:46:36;99192.00;;;20.40
13570;BMP180;6856;51.460;7.158;2022-09-29T14:50:14;99195.00;;;20.40
13570;BMP180;6856;51.460;7.158;2022-09-29T14:56:46;99189.00;;;20.20
13570;BMP180;6856;51.460;7.158;2022-09-29T14:59:38;99206.00;;;20.30
13570;BMP180;6856;51.460;7.158;2022-09-29T15:02:23;99207.00;;;20.20
13570;BMP180;6856;51.460;7.158;2022-09-29T15:04:58;99210.00;;;20.20
13570;BMP180;6856;51.460;7.158;2022-09-29T15:07:39;99192.00;;;20.20
13570;BMP180;6856;51.460;7.158;2022-09-29T15:10:22;99206.00;;;20.20
13570;BMP180;6856;51.460;7.158;2022-09-29T15:13:15;99201.00;;;20.20
13570;BMP180;6856;51.460;7.158;2022-09-29T15:15:58;99190.00;;;20.20
13570;BMP180;6856;51.460;7.158;2022-09-29T15:18:57;99216.00;;;20.20
13570;BMP180;6856;51.460;7.158;2022-09-29T15:21:44;99216.00;;;20.20
13570;BMP180;6856;51.460;7.158;2022-09-29T15:24:56;99201.00;;;20.20
13570;BMP180;6856;51.460;7.158;2022-09-29T15:27:32;99195.00;;;20.20
13570;BMP180;6856;51.460;7.158;2022-09-29T15:30:14;99211.00;;;20.10
13570;BMP180;6856;51.460;7.158;2022-09-29T15:32:51;99212.00;;;20.10
13570;BMP180;6856;51.460;7.158;2022-09-29T15:35:25;99191.00;;;20.10
13570;BMP180;6856;51.460;7.158;2022-09-29T15:38:25;99218.00;;;20.10
13570;BMP180;6856;51.460;7.158;2022-09-29T15:41:14;99211.00;;;20.10
13570;BMP180;6856;51.460;7.158;2022-09-29T15:43:56;99210.00;;;20.10
13570;BMP180;6856;51.460;7.158;2022-09-29T15:46:38;99217.00;;;20.00
13570;BMP180;6856;51.460;7.158;2022-09-29T15:49:17;99218.00;;;20.00
13570;BMP180;6856;51.460;7.158;2022-09-29T15:51:58;99230.00;;;20.00
13570;BMP180;6856;51.460;7.158;2022-09-29T15:54:35;99227.00;;;20.00
13570;BMP180;6856;51.460;7.158;2022-09-29T15:57:40;99231.00;;;19.90
13570;BMP180;6856;51.460;7.158;2022-09-29T16:00:44;99231.00;;;19.90
13570;BMP180;6856;51.460;7.158;2022-09-29T16:03:26;99237.00;;;19.90
13570;BMP180;6856;51.460;7.158;2022-09-29T16:06:10;99235.00;;;19.90
13570;BMP180;6856;51.460;7.158;2022-09-29T16:08:48;99242.00;;;19.90
13570;BMP180;6856;51.460;7.158;2022-09-29T16:11:29;99245.00;;;19.90
13570;BMP180;6856;51.460;7.158;2022-09-29T16:14:08;99250.00;;;19.90
13570;BMP180;6856;51.460;7.158;2022-09-29T16:16:45;99244.00;;;19.90
13570;BMP180;6856;51.460;7.158;2022-09-29T16:19:22;99248.00;;;19.90
13570;BMP180;6856;51.460;7.158;2022-09-29T16:22:03;99263.00;;;19.90
13570;BMP180;6856;51.460;7.158;2022-09-29T16:25:08;99272.00;;;19.80
13570;BMP180;6856;51.460;7.158;2022-09-29T16:27:52;99267.00;;;19.80
13570;BMP180;6856;51.460;7.158;2022-09-29T16:30:32;99279.00;;;19.80
13570;BMP180;6856;51.460;7.158;2022-09-29T16:33:14;99278.00;;;19.80
13570;BMP180;6856;51.460;7.158;2022-09-29T16:35:59;99282.00;;;19.70
13570;BMP180;6856;51.460;7.158;2022-09-29T16:38:38;99288.00;;;19.70
13570;BMP180;6856;51.460;7.158;2022-09-29T16:41:20;99286.00;;;19.70
13570;BMP180;6856;51.460;7.158;2022-09-29T16:44:10;99290.00;;;19.60
13570;BMP180;6856;51.460;7.158;2022-09-29T16:46:48;99305.00;;;19.60
13570;BMP180;6856;51.460;7.158;2022-09-29T16:49:26;99298.00;;;19.60
13570;BMP180;6856;51.460;7.158;2022-09-29T16:52:12;99300.00;;;19.60
13570;BMP180;6856;51.460;7.158;2022-09-29T16:54:49;99295.00;;;19.50
13570;BMP180;6856;51.460;7.158;2022-09-29T16:57:25;99299.00;;;19.40
13570;BMP180;6856;51.460;7.158;2022-09-29T17:00:08;99300.00;;;19.50
13570;BMP180;6856;51.460;7.158;2022-09-29T17:02:54;99298.00;;;19.40
13570;BMP180;6856;51.460;7.158;2022-09-29T17:05:28;99309.00;;;19.40
13570;BMP180;6856;51.460;7.158;2022-09-29T17:08:05;99300.00;;;19.30
13570;BMP180;6856;51.460;7.158;2022-09-29T17:10:46;99306.00;;;19.30
13570;BMP180;6856;51.460;7.158;2022-09-29T17:13:20;99307.00;;;19.20
13570;BMP180;6856;51.460;7.158;2022-09-29T17:15:54;99296.00;;;19.20
13570;BMP180;6856;51.460;7.158;2022-09-29T17:18:28;99289.00;;;19.10
13570;BMP180;6856;51.460;7.158;2022-09-29T17:21:02;99323.00;;;19.10
13570;BMP180;6856;51.460;7.158;2022-09-29T17:23:35;99322.00;;;19.00
13570;BMP180;6856;51.460;7.158;2022-09-29T17:26:18;99329.00;;;19.00
13570;BMP180;6856;51.460;7.158;2022-09-29T17:29:10;99326.00;;;18.90
13570;BMP180;6856;51.460;7.158;2022-09-29T17:31:43;99330.00;;;18.90
13570;BMP180;6856;51.460;7.158;2022-09-29T17:34:17;99331.00;;;18.80
13570;BMP180;6856;51.460;7.158;2022-09-29T17:37:07;99330.00;;;18.70
13570;BMP180;6856;51.460;7.158;2022-09-29T17:39:41;99312.00;;;18.70
13570;BMP180;6856;51.460;7.158;2022-09-29T17:42:17;99335.00;;;18.60
13570;BMP180;6856;51.460;7.158;2022-09-29T17:44:51;99344.00;;;18.50
13570;BMP180;6856;51.460;7.158;2022-09-29T17:47:24;99341.00;;;18.50
13570;BMP180;6856;51.460;7.158;2022-09-29T17:50:18;99342.00;;;18.40
13570;BMP180;6856;51.460;7.158;2022-09-29T17:52:55;99349.00;;;18.40
13570;BMP180;6856;51.460;7.158;2022-09-29T17:55:30;99356.00;;;18.30
13570;BMP180;6856;51.460;7.158;2022-09-29T17:58:07;99356.00;;;18.20
13570;BMP180;6856;51.460;7.158;2022-09-29T18:00:42;99356.00;;;18.10
13570;BMP180;6856;51.460;7.158;2022-09-29T18:03:20;99352.00;;;18.10
13570;BMP180;6856;51.460;7.158;2022-09-29T18:05:55;99371.00;;;18.00
13570;BMP180;6856;51.460;7.158;2022-09-29T18:08:29;99366.00;;;17.90
13570;BMP180;6856;51.460;7.158;2022-09-29T18:11:03;99351.00;;;17.80
13570;BMP180;6856;51.460;7.158;2022-09-29T18:13:39;99369.00;;;17.80
13570;BMP180;6856;51.460;7.158;2022-09-29T18:16:16;99374.00;;;17.80
13570;BMP180;6856;51.460;7.158;2022-09-29T18:18:50;99379.00;;;17.70
13570;BMP180;6856;51.460;7.158;2022-09-29T18:21:29;99377.00;;;17.70
13570;BMP180;6856;51.460;7.158;2022-09-29T18:24:05;99395.00;;;17.60
13570;BMP180;6856;51.460;7.158;2022-09-29T18:26:44;99386.00;;;17.50